ZMUB/ULN METAR and TAF weather

Enter ICAO airport designator
Station Type Date Time Source
ZMUB METAR 2020/04/05 16:00 UTC NOAA

ZMUB 051600Z VRB02MPS 9999 BKN100 05/M07 Q1021 NOSIG RMK QFE658.3 41 NT


Station Type Date Time Source
ZMUB Decoded METAR 2020/04/05 16:00 UTC NOAA

Ulan-Bator, Mongolia (ZMUB) 47-51N 106-46E
Apr 05, 2020 - 12:00 PM EDT / 2020.04.05 1600 UTC
Wind: Variable at 4 MPH (4 KT):0
Visibility: greater than 7 mile(s):0
Sky conditions: mostly cloudy
Temperature: 41 F (5 C)
Dew Point: 19 F (-7 C)
Relative Humidity: 41%
Pressure (altimeter): 30.15 in. Hg (1021 hPa)
ob: ZMUB 051600Z VRB02MPS 9999 BKN100 05/M07 Q1021 NOSIG RMK QFE658.3 41 NT
cycle: 16

Station Type Date Time Source
ZMUB TAF 2020/04/05 12:57 UTC NOAA

TAF TAF ZMUB 051040Z 0512/0618 01006MPS 9999 SCT100 TNM03/0522Z TX11/0607Z
BECMG 0519/0521 12008MPS
BECMG 0600/0602 14011G16MPS 6000 BLDU SCT033

Example: see airport list